»·PEaware :: N9229P KBJC-KSBS

N9229P :: KBJC-KSBS

FLIGHT INFORMATION

Flight Status: Arrived
Operator: Privately registered:
United States
More flights under this callsign
Pilot: James W. (24810)
Aircraft: PIPER PA-24 COMMANCHE
(PA24)
More flights by this aircraft type
Origin: KBJC Jeffco
United States
Destination: KSBS Steamboat Springs/Adams
United States
More flights between these airports :: More routes between these airports
Route:
File this flight plan on PilotEdge
Remarks:
Altitude:
(Current/Filed)
14,500ft
Speed:
(Current/Filed)
165kts
Departed: 06-Sep-20 02:37 PM
Arrived: 06-Sep-20 03:37 PM
Distance/Time
Traveled:
88nm/1:00
Distance/Time
To Go:
Arrived

Flight Plot

Page will automatically refresh every two minutes.

Flight plan parsing failed; only flown route is shown


Map Options




Map Legend


Flown Route
Filed Route
Departure Airport
Arrival Airport
Navaid (VOR, NDB)
Fix

Horizontal Profiles

Position Reports

Time Latitude Longitude Heading Altitude Ground
Speed
06-Sep-20 14:27 39.908969 -105.112726 119 5599ft 0kts
06-Sep-20 14:28 39.908941 -105.112662 119 5599ft 0kts
06-Sep-20 14:29 39.908913 -105.112598 120 5599ft 0kts
06-Sep-20 14:30 39.908810 -105.112411 129 5598ft 4kts
06-Sep-20 14:31 39.907491 -105.109980 106 5586ft 0kts
06-Sep-20 14:32 39.906902 -105.109924 134 5583ft 8kts
06-Sep-20 14:33 39.904557 -105.105438 123 5560ft 18kts
06-Sep-20 14:34 39.902988 -105.102386 120 5540ft 6kts
06-Sep-20 14:35 39.902207 -105.101361 188 5533ft 6kts
06-Sep-20 14:36 39.908339 -105.115681 310 5724ft 100kts
06-Sep-20 14:37 39.925081 -105.150245 306 6904ft 121kts
06-Sep-20 14:38 39.934692 -105.193848 283 8005ft 133kts
06-Sep-20 14:39 39.939081 -105.241757 282 9099ft 131kts
06-Sep-20 14:40 39.942907 -105.287942 282 10182ft 125kts
06-Sep-20 14:41 39.946552 -105.332181 281 11268ft 120kts
06-Sep-20 14:42 39.949965 -105.373746 279 12346ft 111kts
06-Sep-20 14:43 39.953073 -105.412122 280 13419ft 102kts
06-Sep-20 14:44 39.955889 -105.447036 280 14488ft 92kts
06-Sep-20 14:45 39.959252 -105.486297 279 14821ft 134kts
06-Sep-20 14:46 39.963488 -105.538398 279 14777ft 155kts
06-Sep-20 14:47 39.968140 -105.596460 279 14619ft 158kts
06-Sep-20 14:48 39.958991 -105.647966 220 14634ft 175kts
06-Sep-20 14:49 39.928557 -105.691729 273 14648ft 157kts
06-Sep-20 14:50 39.952408 -105.737366 307 14636ft 155kts
06-Sep-20 14:51 39.979700 -105.780608 308 14636ft 154kts
06-Sep-20 14:52 40.006988 -105.823756 308 14636ft 154kts
06-Sep-20 14:53 40.019997 -105.876791 288 14636ft 154kts
06-Sep-20 14:54 40.032284 -105.930464 288 14635ft 154kts
06-Sep-20 14:55 40.044559 -105.984002 288 14635ft 154kts
06-Sep-20 14:56 40.056801 -106.037519 288 14635ft 154kts
06-Sep-20 14:57 40.069048 -106.091181 288 14635ft 154kts
06-Sep-20 14:58 40.081244 -106.144742 288 14634ft 154kts
06-Sep-20 14:59 40.093430 -106.198401 288 14634ft 154kts
06-Sep-20 15:00 40.105591 -106.252056 288 14637ft 154kts
06-Sep-20 15:01 40.117436 -106.305959 289 14638ft 154kts
06-Sep-20 15:02 40.129931 -106.359888 288 14621ft 155kts
06-Sep-20 15:03 40.142142 -106.414009 288 14593ft 156kts
06-Sep-20 15:04 40.155167 -106.471466 288 14091ft 169kts
06-Sep-20 15:05 40.168521 -106.531115 288 13583ft 171kts
06-Sep-20 15:06 40.181928 -106.591176 288 13074ft 172kts
06-Sep-20 15:07 40.195330 -106.651386 287 12565ft 173kts
06-Sep-20 15:08 40.208788 -106.712023 287 12078ft 173kts
06-Sep-20 15:09 40.222249 -106.772684 286 11589ft 173kts
06-Sep-20 15:10 40.246094 -106.823248 337 11318ft 169kts
06-Sep-20 15:11 40.290622 -106.824505 353 11317ft 150kts
06-Sep-20 15:12 40.328783 -106.824108 352 11318ft 117kts
06-Sep-20 15:13 40.356714 -106.823998 351 11271ft 101kts
06-Sep-20 15:14 40.385191 -106.821965 353 10689ft 103kts
06-Sep-20 15:15 40.414046 -106.820069 355 10265ft 105kts
06-Sep-20 15:16 40.442643 -106.817997 345 9749ft 95kts
06-Sep-20 15:17 40.464106 -106.831266 325 9359ft 88kts
06-Sep-20 15:18 40.487816 -106.847200 322 8552ft 100kts
06-Sep-20 15:19 40.512635 -106.863762 333 6891ft 104kts
06-Sep-20 15:20 40.525164 -106.883480 239 7473ft 92kts
06-Sep-20 15:21 40.501679 -106.897513 226 8730ft 103kts
06-Sep-20 15:22 40.476209 -106.919951 206 9833ft 118kts
06-Sep-20 15:23 40.440306 -106.944409 214 10116ft 156kts
06-Sep-20 15:24 40.403392 -106.970926 213 11022ft 142kts
06-Sep-20 15:25 40.365826 -106.991050 172 11306ft 158kts
06-Sep-20 15:26 40.348939 -106.947198 82 11303ft 140kts
06-Sep-20 15:28 40.350752 -106.899805 81 11303ft 123kts
06-Sep-20 15:29 40.352609 -106.854786 81 11302ft 124kts
06-Sep-20 15:30 40.364649 -106.823339 359 11144ft 99kts
06-Sep-20 15:31 40.392487 -106.821450 353 10549ft 102kts
06-Sep-20 15:32 40.419906 -106.819592 353 10083ft 101kts
06-Sep-20 15:33 40.447621 -106.820371 322 9540ft 95kts
06-Sep-20 15:34 40.472042 -106.836572 326 8847ft 95kts
06-Sep-20 15:35 40.494858 -106.852411 327 7894ft 97kts
06-Sep-20 15:36 40.516331 -106.866388 332 6853ft 54kts
06-Sep-20 15:37 40.519897 -106.868718 154 6830ft 10kts
06-Sep-20 15:38 40.518439 -106.866749 67 6848ft 9kts
06-Sep-20 15:39 40.517001 -106.864262 136 6853ft 7kts

Navigation Log

Ident Type
Flight plan parsing failed, navigation log unavailable